Terminal Aerodrome Forecast
Issued by NWS

Home | Current Version | Previous Version | Text Only | Print | Product List | Glossary On
Versions: 1 2 3 4 5 6 7 8 9 10 11 12 13 14 15 16 17
000
FTUS44 KLUB 301635 AAA
TAFCDS
TAF AMD
KCDS 301635Z 3017/3112 02008KT P6SM VCSH BKN040
      TEMPO 3017/3019 6SM -TSRA BKN009 BKN040CB
     FM302000 04009KT P6SM -TSRA BKN040CB
     FM310300 07010KT P6SM VCSH BKN050=

USA.gov is the U.S. government's official web portal to all federal, state and local government web resources and services.